United Spirit — ELYB2 — position and weather

sailwx.info

Track history (hours):
 
Tides and Currents Weather Stations Pressure Air Temp Water Temp Dewpoint Dewpoint Depression Visibility Wind Speed Wind Dir Waves Ship Positions

United Spirit

Last reported at 2016-May-02 23:20 UTC. Time now 2016-May-25 11:09 UTC.
Position N 02°02' E 102°10'.
Warning: this ship's position is 22 days out of date.

Type: Cargo ship. MMSI: 636011280.

Date/timePositionNaut miles runAvg speedWind from/ knotsBaromVisibWave heightAir tempDewpointWater temp
2016-May-02 23:20N 02°02' E 102°10'1317.0
2016-May-02 22:34N 01°55' E 102°21'1716.8
2016-May-02 21:33N 01°48' E 102°36'1717.1
2016-May-02 20:33N 01°41' E 102°52'5317.7
2016-May-02 17:33N 01°12' E 103°36'1010.1
2016-May-02 16:33N 01°17' E 103°45'0 0.5
2016-May-02 15:32N 01°17' E 103°45'0 0.0
2016-May-02 14:32N 01°17' E 103°45'0 0.0
2016-May-02 13:32N 01°17' E 103°45'0 0.0
2016-May-02 12:32N 01°17' E 103°45'0 0.0
2016-May-02 11:32N 01°17' E 103°45'0 0.0
2016-May-02 10:32N 01°17' E 103°45'0 0.5
2016-May-02 09:34N 01°17' E 103°45'6 6.0
2016-May-02 08:33N 01°13' E 103°49'6 4.5
2016-May-02 07:16N 01°16' E 103°54'0 0.0
2016-May-02 06:22N 01°16' E 103°54'0 0.0
2016-May-02 05:25N 01°16' E 103°54'0 0.1
2016-May-02 04:31N 01°16' E 103°54'0 0.0
2016-May-02 03:16N 01°16' E 103°54'0 0.0
2016-May-02 02:22N 01°16' E 103°54'0 0.0
2016-May-02 01:31N 01°16' E 103°54'0 0.1
2016-May-02 00:25N 01°16' E 103°54'0 0.0
2016-May-01 23:31N 01°16' E 103°54'0 0.0
2016-May-01 22:31N 01°16' E 103°54'0 0.1
2016-May-01 21:25N 01°16' E 103°54'0 0.0
2016-May-01 20:31N 01°16' E 103°54'0 0.0
2016-May-01 19:19N 01°16' E 103°54'0 0.1
2016-May-01 18:31N 01°16' E 103°54'4 4.0
2016-May-01 17:31N 01°12' E 103°52'9 9.8
2016-May-01 16:33N 01°07' E 103°44'8 7.9
2016-May-01 15:32N 01°04' E 103°37'  
Track history (hours):
 
Tides and Currents Weather Stations Pressure Air Temp Water Temp Dewpoint Dewpoint Depression Visibility Wind Speed Wind Dir Waves Ship Positions

United Spirit

Last reported at 2016-May-02 23:20 UTC. Time now 2016-May-25 11:09 UTC.
Position N 02°02' E 102°10'.
Warning: this ship's position is 22 days out of date.

Type: Cargo ship. MMSI: 636011280.

Date/timePositionNaut miles runAvg speedWind from/ knotsBaromVisibWave heightAir tempDewpointWater temp
2016-May-02 23:20N 02°02' E 102°10'1317.0
2016-May-02 22:34N 01°55' E 102°21'1716.8
2016-May-02 21:33N 01°48' E 102°36'1717.1
2016-May-02 20:33N 01°41' E 102°52'5317.7
2016-May-02 17:33N 01°12' E 103°36'1010.1
2016-May-02 16:33N 01°17' E 103°45'0 0.5
2016-May-02 15:32N 01°17' E 103°45'0 0.0
2016-May-02 14:32N 01°17' E 103°45'0 0.0
2016-May-02 13:32N 01°17' E 103°45'0 0.0
2016-May-02 12:32N 01°17' E 103°45'0 0.0
2016-May-02 11:32N 01°17' E 103°45'0 0.0
2016-May-02 10:32N 01°17' E 103°45'0 0.5
2016-May-02 09:34N 01°17' E 103°45'6 6.0
2016-May-02 08:33N 01°13' E 103°49'6 4.5
2016-May-02 07:16N 01°16' E 103°54'0 0.0
2016-May-02 06:22N 01°16' E 103°54'0 0.0
2016-May-02 05:25N 01°16' E 103°54'0 0.1
2016-May-02 04:31N 01°16' E 103°54'0 0.0
2016-May-02 03:16N 01°16' E 103°54'0 0.0
2016-May-02 02:22N 01°16' E 103°54'0 0.0
2016-May-02 01:31N 01°16' E 103°54'0 0.1
2016-May-02 00:25N 01°16' E 103°54'0 0.0
2016-May-01 23:31N 01°16' E 103°54'0 0.0
2016-May-01 22:31N 01°16' E 103°54'0 0.1
2016-May-01 21:25N 01°16' E 103°54'0 0.0
2016-May-01 20:31N 01°16' E 103°54'0 0.0
2016-May-01 19:19N 01°16' E 103°54'0 0.1
2016-May-01 18:31N 01°16' E 103°54'4 4.0
2016-May-01 17:31N 01°12' E 103°52'9 9.8
2016-May-01 16:33N 01°07' E 103°44'8 7.9
2016-May-01 15:32N 01°04' E 103°37'  

Dump ship's entire track history